Time;durP1;ratioP1;P1;durP2;ratioP2;P2;SDS_P1;SDS_P2;PMS_P1;PMS_P2;Temp;Humidity;BMP_temperature;BMP_pressure;BME280_temperature;BME280_humidity;BME280_pressure;Samples;Min_cycle;Max_cycle;Signal;HPM_P1;HPM_P2
2022/12/11 00:01:12;;;;;;;25.27;20.80;;;;;;;4.33;54.61;98073.66;5091625;28;20020;-48
2022/12/11 00:03:38;;;;;;;45.20;37.35;;;;;;;4.36;54.18;98077.69;5091598;28;20090;-48
2022/12/11 00:06:06;;;;;;;76.18;67.85;;;;;;;4.30;55.04;98068.00;5091629;28;20537;-48
2022/12/11 00:08:32;;;;;;;1999.90;999.90;;;;;;;4.28;54.34;98060.38;5091856;28;20467;-48
2022/12/11 00:10:58;;;;;;;1999.90;999.90;;;;;;;4.28;55.63;98062.16;5090313;28;20127;-48
2022/12/11 00:13:23;;;;;;;1999.90;888.00;;;;;;;4.30;55.18;98068.78;5090510;28;20165;-48
2022/12/11 00:15:49;;;;;;;521.67;234.50;;;;;;;4.39;55.76;98070.34;5091472;28;20493;-48
2022/12/11 00:18:15;;;;;;;217.02;86.03;;;;;;;4.38;55.20;98055.72;5090171;28;20111;-48
2022/12/11 00:20:41;;;;;;;164.23;57.20;;;;;;;4.36;54.80;98068.09;5091067;28;20127;-48
2022/12/11 00:23:07;;;;;;;136.52;49.80;;;;;;;4.36;54.55;98069.88;5090258;28;20024;-48
2022/12/11 00:25:32;;;;;;;73.75;34.28;;;;;;;4.30;54.63;98081.78;5090028;28;20028;-48
2022/12/11 00:27:58;;;;;;;85.00;39.50;;;;;;;4.29;55.04;98090.56;5090466;28;20056;-48
2022/12/11 00:30:24;;;;;;;84.07;43.15;;;;;;;4.24;55.08;98102.44;5090032;28;20106;-48
2022/12/11 00:32:52;;;;;;;39.10;20.30;;;;;;;4.12;54.70;98097.66;5090022;28;20414;-48
2022/12/11 00:35:18;;;;;;;45.55;22.92;;;;;;;3.94;55.30;98094.53;5091332;28;20087;-48
2022/12/11 00:37:43;;;;;;;56.40;28.92;;;;;;;3.90;55.51;98096.66;5089996;28;20043;-48
2022/12/11 00:40:09;;;;;;;38.92;21.50;;;;;;;3.95;56.20;98098.75;5091169;28;20016;-48
2022/12/11 00:42:35;;;;;;;34.22;19.27;;;;;;;3.93;55.24;98108.50;5094953;28;20028;-48
2022/12/11 00:45:01;;;;;;;45.55;25.02;;;;;;;3.86;56.29;98110.16;5093582;28;20077;-48
2022/12/11 00:47:26;;;;;;;25.75;16.08;;;;;;;4.08;55.68;98113.75;5093543;28;20051;-48
2022/12/11 00:49:52;;;;;;;22.13;15.82;;;;;;;4.17;54.85;98107.53;5094911;28;20024;-48
2022/12/11 00:52:17;;;;;;;27.00;15.93;;;;;;;4.22;55.67;98112.22;5094806;28;20032;-48
2022/12/11 00:54:43;;;;;;;28.23;15.98;;;;;;;4.31;55.26;98098.19;5094693;28;20016;-48
2022/12/11 00:57:08;;;;;;;20.23;12.23;;;;;;;4.45;55.15;98102.63;5094688;28;20099;-48
2022/12/11 00:59:34;;;;;;;19.55;13.95;;;;;;;4.58;53.98;98102.00;5094868;28;20056;-48
2022/12/11 01:01:59;;;;;;;18.85;12.57;;;;;;;4.39;53.89;98101.53;5094494;28;20481;-48
2022/12/11 01:04:25;;;;;;;22.67;13.48;;;;;;;4.27;54.50;98102.91;5093214;28;20367;-48
2022/12/11 01:06:51;;;;;;;23.85;14.00;;;;;;;4.08;55.18;98093.78;5094474;28;20513;-48
2022/12/11 01:12:00;;;;;;;20.80;12.43;;;;;;;4.15;55.02;98102.50;5095029;28;20039;-48
2022/12/11 01:14:26;;;;;;;18.52;11.98;;;;;;;4.18;55.62;98090.97;5094333;28;20020;-48
2022/12/11 01:16:52;;;;;;;19.58;11.50;;;;;;;4.24;55.43;98100.66;5092997;28;20020;-48
2022/12/11 01:19:18;;;;;;;19.98;11.88;;;;;;;4.21;55.25;98108.81;5093968;28;20075;-49
2022/12/11 01:21:43;;;;;;;23.58;11.90;;;;;;;4.14;55.51;98098.28;5094229;28;20592;-48
2022/12/11 01:24:09;;;;;;;19.30;11.85;;;;;;;4.19;55.69;98103.78;5094170;28;20016;-48
2022/12/11 01:26:34;;;;;;;16.73;12.77;;;;;;;4.19;55.25;98111.56;5094064;28;20016;-48
2022/12/11 01:29:00;;;;;;;16.33;11.30;;;;;;;4.19;55.02;98118.56;5094040;28;20028;-48
2022/12/11 01:31:26;;;;;;;19.08;11.32;;;;;;;4.01;55.78;98126.63;5092666;28;20032;-48
2022/12/11 01:33:53;;;;;;;19.75;10.68;;;;;;;4.02;55.48;98133.44;5093998;28;20028;-48
2022/12/11 01:36:20;;;;;;;27.83;13.25;;;;;;;3.95;55.39;98135.91;5094160;28;20437;-48
2022/12/11 01:38:47;;;;;;;20.83;12.32;;;;;;;4.04;55.81;98136.66;5093929;28;20020;-48
2022/12/11 01:41:13;;;;;;;15.13;11.60;;;;;;;4.26;55.69;98142.84;5093747;28;20031;-48
2022/12/11 01:44:02;;;;;;;19.55;11.35;;;;;;;4.32;55.17;98143.94;5093785;28;20020;-48
2022/12/11 01:46:29;;;;;;;18.58;11.05;;;;;;;4.36;54.82;98137.44;5093715;28;20024;-48
2022/12/11 01:48:57;;;;;;;24.30;13.20;;;;;;;4.20;54.55;98146.13;5093902;28;20456;-48
2022/12/11 01:51:23;;;;;;;17.77;13.30;;;;;;;4.02;55.54;98140.41;5092104;28;20073;-48
2022/12/11 01:53:58;;;;;;;16.00;11.45;;;;;;;4.06;55.64;98152.88;5092265;28;20031;-48
2022/12/11 01:56:24;;;;;;;21.25;11.30;;;;;;;3.77;55.55;98158.72;5092285;28;20079;-48
2022/12/11 01:58:55;;;;;;;19.98;11.85;;;;;;;3.86;55.64;98159.47;5093526;28;20030;-48
2022/12/11 02:01:29;;;;;;;25.50;13.05;;;;;;;3.92;55.90;98162.19;5093437;28;20028;-48
2022/12/11 02:03:56;;;;;;;22.08;11.18;;;;;;;4.08;55.73;98157.91;5092173;28;20471;-48
2022/12/11 02:06:38;;;;;;;20.30;11.68;;;;;;;4.03;54.82;98155.03;5075464;28;20032;-48
2022/12/11 02:09:09;;;;;;;17.63;11.27;;;;;;;3.93;56.16;98157.84;5093370;28;20027;-48
2022/12/11 02:12:01;;;;;;;21.70;11.63;;;;;;;3.96;55.75;98152.28;5091929;28;20036;-48
2022/12/11 02:14:48;;;;;;;22.02;12.30;;;;;;;3.95;55.56;98154.09;5093191;28;20043;-48
2022/12/11 02:17:40;;;;;;;15.18;11.18;;;;;;;4.08;55.51;98158.69;5091873;28;20027;-48
2022/12/11 02:20:08;;;;;;;17.98;13.25;;;;;;;4.32;54.12;98159.53;5087590;28;20089;-48
2022/12/11 02:23:03;;;;;;;15.93;10.95;;;;;;;4.12;54.35;98159.97;5092952;28;20028;-48
2022/12/11 02:25:35;;;;;;;18.58;12.27;;;;;;;3.97;54.90;98161.72;5091659;28;20031;-48
2022/12/11 02:28:32;;;;;;;18.02;13.00;;;;;;;4.00;54.78;98162.19;5091699;28;20036;-48
2022/12/11 02:31:10;;;;;;;19.83;14.73;;;;;;;4.04;55.13;98160.03;5092976;28;20032;-48
2022/12/11 02:33:46;;;;;;;19.67;14.32;;;;;;;4.06;54.65;98160.66;5091626;28;20027;-47
2022/12/11 02:36:15;;;;;;;16.40;12.00;;;;;;;3.96;55.29;98160.06;5093088;28;20077;-48
2022/12/11 02:38:42;;;;;;;18.13;12.70;;;;;;;4.09;55.73;98162.13;5092791;28;20020;-48
2022/12/11 02:41:10;;;;;;;18.40;11.73;;;;;;;4.32;54.48;98160.34;5092583;28;20032;-48
2022/12/11 02:43:37;;;;;;;21.05;13.00;;;;;;;4.25;54.47;98177.59;5092673;28;20027;-48
2022/12/11 02:46:06;;;;;;;15.07;12.00;;;;;;;4.01;54.50;98175.97;5091402;28;20093;-48
2022/12/11 02:48:33;;;;;;;19.13;12.40;;;;;;;3.86;55.56;98170.66;5092549;28;20012;-47
2022/12/11 02:51:02;;;;;;;17.90;11.40;;;;;;;3.80;55.67;98172.19;5092806;28;20055;-48
2022/12/11 02:53:30;;;;;;;22.27;12.18;;;;;;;3.67;55.63;98161.53;5092506;28;20027;-48
2022/12/11 02:56:05;;;;;;;18.23;12.40;;;;;;;3.54;55.67;98156.88;5092431;28;20027;-47
2022/12/11 02:58:33;;;;;;;23.23;13.20;;;;;;;3.52;56.21;98158.00;5091140;28;20030;-48
2022/12/11 03:00:59;;;;;;;20.65;13.23;;;;;;;3.48;56.82;98151.53;5092283;28;20028;-48
2022/12/11 03:03:24;;;;;;;22.40;13.25;;;;;;;3.39;56.58;98154.16;5091664;28;20039;-48
2022/12/11 03:05:50;;;;;;;20.63;14.50;;;;;;;3.27;56.58;98141.72;5092269;28;20543;-48
2022/12/11 03:08:17;;;;;;;34.30;25.23;;;;;;;3.16;57.13;98153.28;5092484;28;20028;-48
2022/12/11 03:10:44;;;;;;;21.52;15.23;;;;;;;3.05;57.76;98146.66;5092470;28;20024;-48
2022/12/11 03:13:20;;;;;;;34.45;24.02;;;;;;;3.11;58.46;98143.38;5090883;28;20028;-48
2022/12/11 03:16:03;;;;;;;28.38;18.73;;;;;;;3.20;57.80;98149.38;5092148;28;20035;-48
2022/12/11 03:19:02;;;;;;;20.20;13.93;;;;;;;3.27;57.63;98141.72;5090937;28;20043;-48
2022/12/11 03:21:52;;;;;;;23.02;13.20;;;;;;;3.37;58.03;98130.19;5060179;28;20064;-48
2022/12/11 03:24:26;;;;;;;18.48;12.40;;;;;;;3.49;57.56;98135.00;5090820;28;20040;-48
2022/12/11 03:27:01;;;;;;;16.45;11.15;;;;;;;3.35;57.07;98132.13;5092070;28;20125;-48
2022/12/11 03:30:02;;;;;;;22.30;15.32;;;;;;;3.26;57.35;98135.75;5090742;28;20556;-48
2022/12/11 03:32:43;;;;;;;22.15;14.10;;;;;;;3.49;57.87;98135.00;5090511;28;20028;-48
2022/12/11 03:35:35;;;;;;;18.75;13.02;;;;;;;3.58;56.35;98128.78;5091920;28;20039;-48
2022/12/11 03:38:07;;;;;;;20.83;11.05;;;;;;;3.82;56.05;98132.25;5088768;28;20032;-48
2022/12/11 03:40:35;;;;;;;28.67;14.00;;;;;;;4.01;55.70;98126.63;5073726;28;20032;-48
2022/12/11 03:43:04;;;;;;;18.40;12.45;;;;;;;4.05;55.84;98138.28;5092086;28;20030;-47
2022/12/11 03:45:29;;;;;;;18.33;11.95;;;;;;;3.93;55.23;98126.69;5090447;28;20043;-48
2022/12/11 03:47:58;;;;;;;23.92;12.50;;;;;;;3.67;55.38;98129.59;5091804;28;20021;-48
2022/12/11 03:50:31;;;;;;;23.55;12.75;;;;;;;3.47;56.21;98129.97;5091755;28;20028;-48
2022/12/11 03:52:57;;;;;;;20.08;13.05;;;;;;;3.51;56.50;98131.25;5091762;28;20016;-48
2022/12/11 03:55:28;;;;;;;18.50;12.00;;;;;;;3.52;56.12;98125.13;5090409;28;20086;-48
2022/12/11 03:57:54;;;;;;;21.20;13.00;;;;;;;3.48;56.12;98130.78;5090498;28;20490;-48
2022/12/11 04:00:20;;;;;;;20.95;12.77;;;;;;;3.46;56.04;98130.97;5090338;28;20058;-48
2022/12/11 04:03:11;;;;;;;18.40;12.52;;;;;;;3.35;56.71;98123.56;5090338;28;20516;-48
2022/12/11 04:05:31;;;;;;;23.85;13.23;;;;;;;3.29;56.67;98135.41;5091431;28;20043;-48
2022/12/11 04:07:57;;;;;;;19.73;12.10;;;;;;;3.39;57.26;98136.00;5091634;28;20024;-48
2022/12/11 04:10:23;;;;;;;22.65;12.38;;;;;;;3.37;56.07;98130.19;5091514;28;20103;-48
2022/12/11 04:12:48;;;;;;;28.40;13.70;;;;;;;3.24;56.23;98129.91;5091551;28;20031;-47
2022/12/11 04:15:14;;;;;;;18.58;11.65;;;;;;;3.29;56.94;98122.44;5094629;28;20020;-48
2022/12/11 04:26:07;;;;;;;20.45;12.40;;;;;;;3.20;56.64;98116.47;5095601;28;20154;-48
2022/12/11 04:28:37;;;;;;;20.92;13.10;;;;;;;3.33;56.90;98115.13;5093994;28;20027;-48
2022/12/11 04:31:03;;;;;;;19.88;12.73;;;;;;;3.38;57.15;98116.25;5095252;28;20427;-48
2022/12/11 04:33:28;;;;;;;21.25;12.98;;;;;;;3.53;56.61;98113.75;5093842;28;20024;-48
2022/12/11 04:35:57;;;;;;;18.20;12.50;;;;;;;3.68;56.33;98111.25;5095312;28;20520;-48
2022/12/11 04:38:23;;;;;;;28.67;13.57;;;;;;;3.77;56.88;98106.81;5095297;28;20047;-48
2022/12/11 04:40:48;;;;;;;19.42;13.70;;;;;;;3.81;56.13;98108.09;5094865;28;20494;-48
2022/12/11 04:43:14;;;;;;;23.08;13.60;;;;;;;3.78;55.77;98117.03;5093593;28;20032;-48
2022/12/11 04:45:40;;;;;;;20.80;13.10;;;;;;;3.67;56.31;98114.81;5093576;28;20031;-48
2022/12/11 04:48:05;;;;;;;21.38;13.30;;;;;;;3.55;55.77;98111.00;5094876;28;20020;-48
2022/12/11 04:50:31;;;;;;;22.73;12.55;;;;;;;3.44;56.42;98108.75;5093463;28;20032;-48
2022/12/11 04:52:57;;;;;;;20.58;12.75;;;;;;;3.38;56.49;98116.25;5094809;28;20490;-48
2022/12/11 04:55:23;;;;;;;20.05;12.60;;;;;;;3.33;56.65;98115.94;5094717;28;20393;-47
2022/12/11 04:57:48;;;;;;;26.77;15.05;;;;;;;3.23;56.37;98120.50;5094704;28;20032;-48
2022/12/11 05:00:16;;;;;;;18.83;12.88;;;;;;;3.15;57.05;98113.56;5094892;28;20069;-47
2022/12/11 05:02:41;;;;;;;25.38;14.63;;;;;;;3.19;57.74;98114.84;5094453;28;20028;-48
2022/12/11 05:05:09;;;;;;;26.23;15.52;;;;;;;3.15;57.33;98120.53;5094479;28;20023;-48
2022/12/11 05:07:36;;;;;;;23.52;14.82;;;;;;;2.94;57.42;98119.31;5093142;28;20028;-48
2022/12/11 05:10:03;;;;;;;27.17;16.08;;;;;;;2.85;58.04;98111.69;5094472;28;20020;-48
2022/12/11 05:12:28;;;;;;;23.30;15.45;;;;;;;2.83;57.90;98113.66;5094443;28;20024;-48
2022/12/11 05:14:54;;;;;;;23.63;14.60;;;;;;;2.72;58.43;98118.19;5094395;28;20020;-48
2022/12/11 05:17:21;;;;;;;26.58;15.40;;;;;;;2.80;58.98;98113.00;5093004;28;20030;-48
2022/12/11 05:19:50;;;;;;;24.25;15.98;;;;;;;2.97;59.17;98111.19;5094072;28;20086;-48
2022/12/11 05:22:17;;;;;;;23.92;14.52;;;;;;;3.22;58.87;98108.53;5109871;28;20039;-48
2022/12/11 05:24:43;;;;;;;27.77;17.13;;;;;;;3.39;58.75;98102.28;5094176;28;20432;-48
2022/12/11 05:27:09;;;;;;;20.83;13.63;;;;;;;3.44;58.01;98107.00;5093446;28;20086;-48
2022/12/11 05:29:36;;;;;;;34.45;16.92;;;;;;;3.32;57.37;98106.56;5094109;28;20035;-48
2022/12/11 05:32:01;;;;;;;35.35;15.63;;;;;;;3.29;57.81;98106.06;5092676;28;20027;-48
2022/12/11 05:34:27;;;;;;;21.40;14.18;;;;;;;3.32;58.14;98101.38;5094028;28;20599;-48
2022/12/11 05:36:54;;;;;;;22.67;15.27;;;;;;;3.40;58.18;98097.91;5092742;28;20020;-48
2022/12/11 05:39:19;;;;;;;26.45;15.98;;;;;;;3.42;57.83;98093.38;5092555;28;20024;-48
2022/12/11 05:41:45;;;;;;;24.13;15.02;;;;;;;3.41;57.51;98091.75;5093866;28;20024;-48
2022/12/11 05:44:12;;;;;;;24.55;15.13;;;;;;;3.30;57.44;98089.53;5093824;28;20031;-48
2022/12/11 05:46:38;;;;;;;22.15;13.73;;;;;;;3.25;57.29;98090.03;5092474;28;20051;-48
2022/12/11 05:49:04;;;;;;;23.58;14.30;;;;;;;3.26;57.72;98093.44;5093787;28;20093;-48
2022/12/11 05:51:30;;;;;;;24.10;13.35;;;;;;;3.39;56.97;98083.34;5093700;28;20063;-48
2022/12/11 05:53:56;;;;;;;22.52;14.05;;;;;;;3.47;57.15;98082.50;5093658;28;20464;-47
2022/12/11 05:56:27;;;;;;;23.67;14.60;;;;;;;3.43;56.96;98091.59;5093594;28;20016;-48
2022/12/11 05:58:54;;;;;;;23.60;13.98;;;;;;;3.35;56.64;98093.22;5092222;28;20043;-48
2022/12/11 06:01:29;;;;;;;20.55;13.73;;;;;;;3.18;56.78;98089.09;5092071;28;20022;-48
2022/12/11 06:03:55;;;;;;;26.67;15.23;;;;;;;3.14;56.69;98085.19;5075875;28;20037;-48
2022/12/11 06:06:22;;;;;;;27.65;14.38;;;;;;;3.14;57.08;98088.63;5093344;28;20020;-48
2022/12/11 06:08:52;;;;;;;26.90;14.57;;;;;;;3.29;58.35;98086.13;5093358;28;20038;-48
2022/12/11 06:11:17;;;;;;;24.52;15.85;;;;;;;3.36;58.55;98086.25;5092074;28;20114;-48
2022/12/11 06:13:43;;;;;;;20.25;13.95;;;;;;;3.49;58.97;98077.94;5093265;28;20031;-48
2022/12/11 06:16:09;;;;;;;22.83;13.60;;;;;;;3.46;57.55;98094.66;5091813;28;20031;-48
2022/12/11 06:18:41;;;;;;;22.60;14.45;;;;;;;3.37;58.00;98091.28;5093169;28;20035;-47
2022/12/11 06:21:27;;;;;;;29.02;14.85;;;;;;;3.63;57.46;98079.00;5092803;28;20410;-48
2022/12/11 06:23:57;;;;;;;26.65;14.63;;;;;;;3.69;56.95;98080.91;5093062;28;20111;-48
2022/12/11 06:26:23;;;;;;;24.42;15.40;;;;;;;3.91;56.81;98074.13;5091666;28;20046;-48
2022/12/11 06:28:49;;;;;;;22.20;13.25;;;;;;;3.95;56.25;98071.00;5091636;28;20382;-48
2022/12/11 06:31:14;;;;;;;24.52;15.48;;;;;;;3.85;56.05;98077.41;5092876;28;20032;-48
2022/12/11 06:33:40;;;;;;;23.63;14.40;;;;;;;3.69;56.28;98065.34;5091876;28;20024;-48
2022/12/11 06:36:09;;;;;;;29.73;15.00;;;;;;;3.61;56.18;98058.41;5092826;28;20109;-48
2022/12/11 06:38:35;;;;;;;22.33;15.00;;;;;;;3.43;56.03;98063.84;5091768;28;20077;-47
2022/12/11 06:41:03;;;;;;;20.30;14.10;;;;;;;3.19;56.56;98065.56;5091338;28;20024;-47
2022/12/11 06:43:30;;;;;;;22.55;14.30;;;;;;;3.02;56.59;98078.75;5092961;28;20075;-48
2022/12/11 06:45:56;;;;;;;24.55;15.68;;;;;;;2.79;57.03;98082.88;5092671;28;20043;-48
2022/12/11 06:48:21;;;;;;;21.98;14.60;;;;;;;2.90;57.97;98084.31;5092569;28;20055;-48
2022/12/11 06:50:47;;;;;;;27.00;16.77;;;;;;;2.80;56.91;98081.91;5092539;28;20174;-48
2022/12/11 06:53:14;;;;;;;26.40;14.60;;;;;;;2.50;57.42;98072.25;5092552;28;20026;-48
2022/12/11 06:55:40;;;;;;;20.60;14.20;;;;;;;2.44;58.26;98075.50;5092461;28;20062;-48
2022/12/11 06:58:07;;;;;;;22.17;14.38;;;;;;;2.70;58.56;98078.69;5092701;28;20385;-48
2022/12/11 07:00:37;;;;;;;22.77;14.05;;;;;;;2.98;57.47;98089.47;5092348;28;20501;-48
2022/12/11 07:03:02;;;;;;;27.65;15.75;;;;;;;3.09;56.85;98077.94;5091073;28;20023;-48
2022/12/11 07:05:29;;;;;;;23.58;16.65;;;;;;;2.90;56.71;98076.53;5090951;28;20020;-48
2022/12/11 07:07:55;;;;;;;26.08;14.00;;;;;;;2.89;57.31;98074.13;5092272;28;20028;-48
2022/12/11 07:10:22;;;;;;;22.00;13.95;;;;;;;2.90;57.28;98070.56;5090893;28;20493;-47
2022/12/11 07:12:47;;;;;;;22.98;15.20;;;;;;;2.99;57.76;98070.34;5090849;28;20455;-48
2022/12/11 07:15:13;;;;;;;27.08;14.15;;;;;;;3.03;57.57;98070.81;5092121;28;20028;-48
2022/12/11 07:17:38;;;;;;;24.05;14.85;;;;;;;2.98;57.01;98060.97;5092180;28;20031;-48
2022/12/11 07:20:04;;;;;;;22.98;14.30;;;;;;;2.96;57.41;98067.31;5091805;28;20044;-47
2022/12/11 07:22:30;;;;;;;18.77;13.95;;;;;;;2.94;57.49;98066.66;5091994;28;20024;-48
2022/12/11 07:24:56;;;;;;;29.45;16.00;;;;;;;2.94;57.78;98074.44;5092099;28;20393;-48
2022/12/11 07:27:21;;;;;;;22.65;14.45;;;;;;;2.99;57.60;98075.53;5092004;28;20028;-48
2022/12/11 07:29:47;;;;;;;22.73;14.98;;;;;;;3.00;57.51;98084.94;5090722;28;20743;-47
2022/12/11 07:32:13;;;;;;;24.42;14.35;;;;;;;2.93;57.22;98072.81;5091918;28;20074;-48
2022/12/11 07:34:38;;;;;;;27.08;16.60;;;;;;;2.83;57.29;98077.38;5092181;28;20028;-48
2022/12/11 07:37:04;;;;;;;24.30;15.60;;;;;;;2.65;57.66;98070.59;5091909;28;20028;-48
2022/12/11 07:39:30;;;;;;;27.17;18.63;;;;;;;2.45;58.06;98075.31;5091861;28;20500;-48
2022/12/11 07:41:55;;;;;;;26.83;15.35;;;;;;;2.44;58.50;98076.31;5091808;28;20028;-48
2022/12/11 07:44:21;;;;;;;27.98;16.00;;;;;;;2.40;58.51;98075.00;5091870;28;20024;-47
2022/12/11 07:46:46;;;;;;;26.58;16.60;;;;;;;2.51;58.87;98069.47;5090460;28;20020;-48
2022/12/11 07:49:12;;;;;;;24.08;15.98;;;;;;;2.65;57.71;98080.16;5092040;28;20442;-48
2022/12/11 07:51:38;;;;;;;22.92;14.63;;;;;;;2.44;58.61;98078.91;5095966;28;20050;-48
2022/12/11 07:54:07;;;;;;;25.58;16.70;;;;;;;2.42;58.49;98083.44;5095954;28;20020;-48
2022/12/11 07:56:33;;;;;;;27.08;18.55;;;;;;;2.42;58.76;98091.19;5095866;28;20024;-48
2022/12/11 07:59:00;;;;;;;30.45;18.30;;;;;;;2.44;58.95;98091.84;5094608;28;20490;-47
2022/12/11 08:01:27;;;;;;;27.08;18.08;;;;;;;2.55;58.87;98077.75;5095734;28;20024;-48
2022/12/11 08:03:54;;;;;;;22.33;15.48;;;;;;;2.69;58.50;98090.00;5094501;28;20020;-48
2022/12/11 08:06:27;;;;;;;24.00;15.43;;;;;;;2.58;57.46;98090.38;5095796;28;20072;-48
2022/12/11 08:08:54;;;;;;;32.78;19.65;;;;;;;2.23;58.44;98100.09;5094808;28;20482;-48
2022/12/11 08:11:20;;;;;;;33.75;18.42;;;;;;;2.10;59.66;98089.41;5077537;28;20032;-48
2022/12/11 08:13:46;;;;;;;33.17;16.83;;;;;;;2.33;59.74;98095.53;5094350;28;20406;-48
2022/12/11 08:16:14;;;;;;;23.52;15.88;;;;;;;2.57;59.22;98099.09;5095480;28;20398;-47
2022/12/11 08:18:41;;;;;;;28.40;17.08;;;;;;;2.74;58.51;98097.31;5095769;28;20016;-48
2022/12/11 08:21:13;;;;;;;25.98;15.55;;;;;;;2.87;58.21;98094.22;5093860;28;20086;-48
2022/12/11 08:23:39;;;;;;;24.88;16.80;;;;;;;2.84;57.76;98092.75;5095439;28;20028;-48
2022/12/11 08:26:07;;;;;;;27.38;17.35;;;;;;;2.59;57.73;98085.00;5094040;28;20031;-48
2022/12/11 08:28:33;;;;;;;22.70;15.65;;;;;;;2.59;57.93;98089.38;5095275;28;20020;-48
2022/12/11 08:30:59;;;;;;;23.00;14.90;;;;;;;2.73;58.42;98093.91;5095322;28;20161;-48
2022/12/11 08:33:25;;;;;;;23.98;14.50;;;;;;;2.86;58.17;98095.16;5095225;28;20024;-48
2022/12/11 08:35:51;;;;;;;26.52;15.20;;;;;;;3.06;57.89;98095.59;5095163;28;20028;-48
2022/12/11 08:38:16;;;;;;;27.42;16.13;;;;;;;3.20;57.34;98097.53;5095138;28;20020;-48
2022/12/11 08:40:42;;;;;;;23.20;15.77;;;;;;;3.25;56.77;98094.41;5094985;28;20107;-48
2022/12/11 08:43:08;;;;;;;27.67;15.68;;;;;;;3.29;57.10;98088.72;5093721;28;20111;-48
2022/12/11 08:45:33;;;;;;;25.17;16.23;;;;;;;3.38;57.08;98094.66;5093714;28;20028;-48
2022/12/11 08:47:59;;;;;;;27.05;17.70;;;;;;;3.43;56.53;98096.78;5094841;28;20501;-48
2022/12/11 08:50:24;;;;;;;25.38;16.92;;;;;;;3.28;57.14;98099.25;5094895;28;20032;-48
2022/12/11 08:52:50;;;;;;;23.88;17.52;;;;;;;3.22;56.53;98098.16;5093533;28;20032;-48
2022/12/11 08:55:16;;;;;;;28.60;18.88;;;;;;;3.09;57.20;98103.06;5110484;28;20027;-48
2022/12/11 08:57:41;;;;;;;23.70;16.65;;;;;;;3.20;57.82;98103.50;5093461;28;20473;-48
2022/12/11 09:00:11;;;;;;;24.48;14.02;;;;;;;3.43;57.23;98101.97;5093803;28;20024;-48
2022/12/11 09:02:37;;;;;;;26.17;15.93;;;;;;;3.62;56.90;98106.72;5094436;28;20016;-48
2022/12/11 09:05:06;;;;;;;37.05;22.83;;;;;;;3.88;56.42;98105.59;5094548;28;20482;-48
2022/12/11 09:07:33;;;;;;;30.70;19.90;;;;;;;4.07;56.40;98099.97;5094491;28;20020;-48
2022/12/11 09:09:58;;;;;;;26.52;19.90;;;;;;;4.13;55.27;98098.47;5093180;28;20115;-48
2022/12/11 09:12:24;;;;;;;36.25;19.20;;;;;;;4.06;55.48;98093.16;5094448;28;20462;-48
2022/12/11 09:14:50;;;;;;;26.48;17.58;;;;;;;3.62;54.62;98098.94;5094410;28;20054;-48
2022/12/11 09:17:15;;;;;;;26.25;16.45;;;;;;;3.10;56.23;98096.88;5094256;28;20020;-47
2022/12/11 09:19:41;;;;;;;26.08;16.50;;;;;;;3.23;57.18;98097.16;5094099;28;20127;-48
2022/12/11 09:22:08;;;;;;;25.73;14.20;;;;;;;3.52;57.22;98093.97;5094247;28;20024;-47
2022/12/11 09:24:35;;;;;;;31.70;16.55;;;;;;;3.85;56.44;98085.22;5094298;28;20028;-48
2022/12/11 09:27:00;;;;;;;27.88;15.68;;;;;;;4.08;55.36;98085.19;5094113;28;20020;-48
2022/12/11 09:29:26;;;;;;;22.85;15.93;;;;;;;3.97;54.75;98084.63;5094256;28;20027;-48
2022/12/11 09:31:51;;;;;;;28.25;16.20;;;;;;;3.91;55.61;98081.91;5092786;28;20119;-48
2022/12/11 09:34:17;;;;;;;26.40;16.23;;;;;;;4.00;55.77;98081.69;5092772;28;20059;-48
2022/12/11 09:36:43;;;;;;;26.60;16.85;;;;;;;4.05;55.22;98086.38;5094051;28;20028;-48
2022/12/11 09:39:11;;;;;;;27.40;18.23;;;;;;;3.78;55.24;98083.31;5092640;28;20482;-48
2022/12/11 09:41:46;;;;;;;28.90;17.77;;;;;;;3.76;55.91;98087.84;5092482;28;20035;-48
2022/12/11 09:44:33;;;;;;;30.05;19.38;;;;;;;3.98;56.32;98085.44;5094179;28;20024;-48
2022/12/11 09:46:59;;;;;;;33.03;19.48;;;;;;;3.93;55.51;98078.16;5093801;28;20028;-48
2022/12/11 09:49:33;;;;;;;36.97;21.02;;;;;;;3.97;56.05;98076.03;5093696;28;20505;-48
2022/12/11 09:52:19;;;;;;;35.28;19.90;;;;;;;4.15;56.03;98073.16;5092408;28;20040;-48
2022/12/11 09:54:56;;;;;;;;;;;;;;;4.16;54.94;98072.94;5094087;28;20024;-48
2022/12/11 09:57:45;;;;;;;27.10;15.60;;;;;;;4.24;54.85;98069.50;5093573;28;19968;-48
2022/12/11 10:00:11;;;;;;;26.98;16.15;;;;;;;4.29;55.56;98058.59;5092200;28;20584;-48
2022/12/11 10:02:54;;;;;;;31.73;17.85;;;;;;;4.23;55.49;98060.09;5093441;28;20102;-47
2022/12/11 10:05:44;;;;;;;34.20;16.85;;;;;;;4.07;54.66;98048.03;5093474;28;20030;-48
2022/12/11 10:08:19;;;;;;;26.42;16.40;;;;;;;4.05;54.58;98052.59;5093398;28;20032;-48
2022/12/11 10:11:09;;;;;;;27.08;17.02;;;;;;;3.71;54.16;98046.03;5093368;28;20514;-48
2022/12/11 10:14:13;;;;;;;27.85;17.98;;;;;;;3.52;55.47;98049.88;5093252;28;20051;-46
2022/12/11 10:16:51;;;;;;;26.65;16.88;;;;;;;3.40;55.17;98040.84;5093467;28;20382;-46
2022/12/11 10:19:31;;;;;;;29.30;16.83;;;;;;;3.27;55.67;98045.78;5091610;28;20040;-47
2022/12/11 10:21:59;;;;;;;24.25;15.07;;;;;;;3.35;56.57;98038.75;5093065;28;20028;-46
2022/12/11 10:24:39;;;;;;;27.10;16.73;;;;;;;3.52;56.12;98039.50;5091783;28;20504;-46
2022/12/11 10:27:20;;;;;;;36.25;16.70;;;;;;;3.66;55.55;98042.31;5093028;28;20407;-46
2022/12/11 10:29:50;;;;;;;30.20;16.90;;;;;;;3.78;55.83;98043.53;5091623;28;20024;-46
2022/12/11 10:32:52;;;;;;;26.58;18.13;;;;;;;3.92;55.73;98035.00;5091570;28;20035;-46
2022/12/11 10:35:48;;;;;;;32.28;19.65;;;;;;;3.92;55.47;98031.59;5092903;28;20028;-47
2022/12/11 10:38:14;;;;;;;30.13;18.02;;;;;;;3.84;53.49;98029.06;5092854;28;20024;-48
2022/12/11 10:40:45;;;;;;;26.02;17.13;;;;;;;3.50;54.49;98027.66;5092975;28;20032;-48
2022/12/11 10:43:11;;;;;;;30.60;19.95;;;;;;;3.31;55.28;98021.94;5092734;28;20024;-48
2022/12/11 10:45:37;;;;;;;29.65;18.02;;;;;;;3.31;55.38;98019.34;5091364;28;20108;-48
2022/12/11 10:48:09;;;;;;;26.73;16.70;;;;;;;3.39;55.19;98008.13;5092635;28;20115;-48
2022/12/11 10:50:36;;;;;;;28.42;17.42;;;;;;;3.34;55.59;98002.63;5092937;28;20032;-48
2022/12/11 10:53:02;;;;;;;27.00;17.30;;;;;;;3.49;56.00;97992.34;5091220;28;20020;-48
2022/12/11 10:55:38;;;;;;;28.50;17.73;;;;;;;3.38;55.16;97994.34;5091158;28;20035;-48
2022/12/11 10:58:04;;;;;;;;;;;;;;;3.32;56.47;97999.41;5092974;28;20023;-48
2022/12/11 11:00:36;;;;;;;23.65;15.43;;;;;;;3.48;55.65;97993.31;5092437;28;19907;-48
2022/12/11 11:03:18;;;;;;;32.28;15.63;;;;;;;3.62;55.51;97989.16;5092303;28;20028;-48
2022/12/11 11:05:45;;;;;;;31.63;19.27;;;;;;;3.76;55.57;97991.00;5092368;28;20027;-48
2022/12/11 11:08:21;;;;;;;31.48;16.17;;;;;;;3.85;55.78;97986.56;5092541;28;20169;-48
2022/12/11 11:10:57;;;;;;;21.38;15.57;;;;;;;3.99;55.35;97980.63;5092583;28;20020;-48
2022/12/11 11:13:25;;;;;;;25.27;15.70;;;;;;;4.07;55.38;97985.72;5090963;28;20028;-48
2022/12/11 11:15:59;;;;;;;25.10;16.90;;;;;;;4.07;54.76;97987.53;5092115;28;20016;-48
2022/12/11 11:18:27;;;;;;;28.25;17.25;;;;;;;3.89;54.67;97987.84;5092227;28;20036;-48
2022/12/11 11:20:53;;;;;;;24.88;17.48;;;;;;;3.77;55.11;97985.66;5090585;28;20097;-48
2022/12/11 11:23:20;;;;;;;32.30;17.90;;;;;;;3.75;55.49;97999.78;5090164;28;20077;-48
2022/12/11 11:25:51;;;;;;;24.90;15.40;;;;;;;3.74;55.46;98003.34;5092294;28;20032;-48
2022/12/11 11:28:22;;;;;;;25.58;16.15;;;;;;;3.91;54.91;98004.03;5092033;28;20039;-48
2022/12/11 11:31:01;;;;;;;25.20;16.88;;;;;;;4.08;55.49;97991.72;5092032;28;20027;-48
2022/12/11 11:33:28;;;;;;;32.03;16.85;;;;;;;4.06;54.43;97989.28;5090705;28;20408;-48
2022/12/11 11:35:57;;;;;;;26.33;18.80;;;;;;;3.89;54.04;97991.22;5090580;28;20020;-48
2022/12/11 11:38:41;;;;;;;27.00;17.38;;;;;;;3.85;54.95;97989.97;5090600;28;20035;-48
2022/12/11 11:41:16;;;;;;;26.65;17.98;;;;;;;3.77;54.20;97985.66;5090614;28;20440;-48
2022/12/11 11:43:52;;;;;;;27.45;17.50;;;;;;;3.62;54.68;97981.38;5090613;28;20497;-48
2022/12/11 11:46:35;;;;;;;24.35;16.23;;;;;;;3.57;55.11;97982.72;5090554;28;20547;-48